Aristides Batista, Brazil
Current Conditions -  °F | °C
As of 6:00 AM on Saturday 29 Nov 2014 (Local Time) from SBMK Reporting Station
Broken Clouds Broken Clouds  
Wind Chill: 73°   Ceiling: 4500
Heat Index: 73°   Visibility: 6mi
Dew Point: 66°   Wind: 5mph
Humidity: 78%   Direction: 190°S
Pressure: 30"   Gusts: NA
Location:  16.59°S, 44.13°W
Report Text: SBMK 290800Z 19004KT 150V220 9999 BKN045 SCT100 23/19 Q1016
Loading
Personal Weather Stations






























Interactive Weather Map New forecast layout! Learn more

10-Day Weather Forecast

Advertisements
Track Severe Weather on mobile